Time,TemperatureF,DewpointF,PressureIn,WindDirection,WindDirectionDegrees,WindSpeedMPH,WindSpeedGustMPH,Humidity,HourlyPrecipIn,Conditions,Clouds,dailyrainin,SoftwareType,DateUTC
2013-07-22 00:08:00,76.4,69.0,29.83,SSE,149,0.0,-999.0,78,-99.99,,,0.00,weatherlink.com 1.10,2013-07-22 04:08:00,
2013-07-22 00:23:00,76.0,69.0,29.83,SSE,150,0.0,-999.0,79,-99.99,,,0.00,weatherlink.com 1.10,2013-07-22 04:23:00,
2013-07-22 00:38:00,76.1,71.0,29.82,SSE,149,0.0,-999.0,84,-99.99,,,0.05,weatherlink.com 1.10,2013-07-22 04:38:00,
2013-07-22 00:53:00,74.6,71.0,29.83,SSE,159,0.0,-999.0,88,-99.99,,,0.05,weatherlink.com 1.10,2013-07-22 04:53:00,
2013-07-22 01:08:00,70.8,67.0,29.84,NW,325,8.0,-999.0,86,-99.99,,,0.05,weatherlink.com 1.10,2013-07-22 05:08:00,
2013-07-22 01:23:00,68.8,65.0,29.84,NNW,340,0.0,-999.0,87,-99.99,,,0.05,weatherlink.com 1.10,2013-07-22 05:23:00,
2013-07-22 01:38:00,68.7,65.0,29.83,NE,36,0.0,-999.0,88,-99.99,,,0.05,weatherlink.com 1.10,2013-07-22 05:38:00,
2013-07-22 01:53:00,69.4,65.0,29.83,ENE,66,0.0,-999.0,87,-99.99,,,0.05,weatherlink.com 1.10,2013-07-22 05:53:00,
2013-07-22 02:09:00,69.3,66.0,29.83,NE,43,0.0,-999.0,89,-99.99,,,0.07,weatherlink.com 1.10,2013-07-22 06:09:00,
2013-07-22 02:24:00,68.7,66.0,29.83,ENE,73,1.0,-999.0,91,-99.99,,,0.07,weatherlink.com 1.10,2013-07-22 06:24:00,
2013-07-22 02:39:00,68.2,66.0,29.82,ENE,57,0.0,-999.0,92,-99.99,,,0.08,weatherlink.com 1.10,2013-07-22 06:39:00,
2013-07-22 02:54:00,68.1,66.0,29.83,ENE,69,5.0,-999.0,92,-99.99,,,0.08,weatherlink.com 1.10,2013-07-22 06:54:00,
2013-07-22 03:09:00,67.9,66.0,29.83,ENE,69,0.0,-999.0,93,-99.99,,,0.18,weatherlink.com 1.10,2013-07-22 07:09:00,
2013-07-22 03:24:00,67.5,66.0,29.82,ENE,69,0.0,-999.0,93,-99.99,,,0.21,weatherlink.com 1.10,2013-07-22 07:24:00,
2013-07-22 03:39:00,67.3,65.0,29.83,ENE,75,0.0,-999.0,93,-99.99,,,0.28,weatherlink.com 1.10,2013-07-22 07:39:00,
2013-07-22 03:54:00,67.2,65.0,29.82,NNE,33,0.0,-999.0,93,-99.99,,,0.38,weatherlink.com 1.10,2013-07-22 07:54:00,
2013-07-22 04:09:00,67.1,65.0,29.83,ENE,63,0.0,-999.0,94,-99.99,,,0.47,weatherlink.com 1.10,2013-07-22 08:09:00,
2013-07-22 04:24:00,66.8,65.0,29.82,NE,45,0.0,-999.0,94,-99.99,,,0.50,weatherlink.com 1.10,2013-07-22 08:24:00,
2013-07-22 04:39:00,66.7,65.0,29.82,NE,52,0.0,-999.0,94,-99.99,,,0.52,weatherlink.com 1.10,2013-07-22 08:39:00,
2013-07-22 04:54:00,66.5,65.0,29.82,NE,49,0.0,-999.0,94,-99.99,,,0.56,weatherlink.com 1.10,2013-07-22 08:54:00,
2013-07-22 05:10:00,66.4,65.0,29.83,North,5,0.0,-999.0,94,-99.99,,,0.60,weatherlink.com 1.10,2013-07-22 09:10:00,
2013-07-22 05:25:00,66.3,65.0,29.82,WNW,297,0.0,-999.0,94,-99.99,,,0.63,weatherlink.com 1.10,2013-07-22 09:25:00,
2013-07-22 05:40:00,66.3,65.0,29.81,East,88,6.0,-999.0,94,-99.99,,,0.66,weatherlink.com 1.10,2013-07-22 09:40:00,
2013-07-22 05:55:00,66.1,64.0,29.81,East,96,7.0,-999.0,94,-99.99,,,0.68,weatherlink.com 1.10,2013-07-22 09:55:00,
2013-07-22 06:10:00,66.2,65.0,29.80,East,92,9.0,-999.0,94,-99.99,,,0.70,weatherlink.com 1.10,2013-07-22 10:10:00,
2013-07-22 06:25:00,66.5,65.0,29.80,East,86,11.0,-999.0,94,-99.99,,,0.70,weatherlink.com 1.10,2013-07-22 10:25:00,
2013-07-22 06:40:00,66.8,65.0,29.81,ESE,117,2.0,-999.0,94,-99.99,,,0.71,weatherlink.com 1.10,2013-07-22 10:40:00,
2013-07-22 06:55:00,66.5,65.0,29.81,ESE,111,7.0,-999.0,94,-99.99,,,0.71,weatherlink.com 1.10,2013-07-22 10:55:00,
2013-07-22 07:10:00,66.8,65.0,29.81,East,97,9.0,-999.0,94,-99.99,,,0.72,weatherlink.com 1.10,2013-07-22 11:10:00,
2013-07-22 07:25:00,67.0,65.0,29.81,East,93,4.0,-999.0,94,-99.99,,,0.72,weatherlink.com 1.10,2013-07-22 11:25:00,
2013-07-22 07:40:00,67.2,66.0,29.81,East,101,6.0,-999.0,94,-99.99,,,0.72,weatherlink.com 1.10,2013-07-22 11:40:00,
2013-07-22 07:55:00,67.3,66.0,29.81,East,98,0.0,-999.0,94,-99.99,,,0.72,weatherlink.com 1.10,2013-07-22 11:55:00,
2013-07-22 08:10:00,67.4,65.0,29.80,ESE,102,6.0,-999.0,93,-99.99,,,0.73,weatherlink.com 1.10,2013-07-22 12:10:00,
2013-07-22 08:26:00,67.7,66.0,29.80,ESE,111,0.0,-999.0,93,-99.99,,,0.73,weatherlink.com 1.10,2013-07-22 12:26:00,
2013-07-22 08:41:00,67.7,66.0,29.80,ESE,115,0.0,-999.0,94,-99.99,,,0.73,weatherlink.com 1.10,2013-07-22 12:41:00,
2013-07-22 08:56:00,67.8,66.0,29.80,ESE,115,6.0,-999.0,94,-99.99,,,0.73,weatherlink.com 1.10,2013-07-22 12:56:00,
2013-07-22 09:11:00,67.9,66.0,29.80,ESE,120,0.0,-999.0,94,-99.99,,,0.73,weatherlink.com 1.10,2013-07-22 13:11:00,
2013-07-22 09:26:00,68.0,66.0,29.80,ESE,121,0.0,-999.0,94,-99.99,,,0.73,weatherlink.com 1.10,2013-07-22 13:26:00,
2013-07-22 09:41:00,68.3,67.0,29.80,ESE,121,0.0,-999.0,94,-99.99,,,0.73,weatherlink.com 1.10,2013-07-22 13:41:00,
2013-07-22 09:56:00,68.3,66.0,29.79,ESE,123,0.0,-999.0,93,-99.99,,,0.73,weatherlink.com 1.10,2013-07-22 13:56:00,
2013-07-22 10:11:00,68.1,66.0,29.80,ESE,123,0.0,-999.0,93,-99.99,,,0.73,weatherlink.com 1.10,2013-07-22 14:11:00,
2013-07-22 10:26:00,68.6,67.0,29.80,ESE,122,0.0,-999.0,93,-99.99,,,0.73,weatherlink.com 1.10,2013-07-22 14:26:00,
2013-07-22 10:41:00,69.2,67.0,29.80,ESE,122,4.0,-999.0,91,-99.99,,,0.73,weatherlink.com 1.10,2013-07-22 14:41:00,
2013-07-22 10:56:00,69.6,67.0,29.80,ESE,121,0.0,-999.0,90,-99.99,,,0.73,weatherlink.com 1.10,2013-07-22 14:56:00,
2013-07-22 11:11:00,70.3,67.0,29.80,ESE,121,0.0,-999.0,89,-99.99,,,0.73,weatherlink.com 1.10,2013-07-22 15:11:00,
2013-07-22 11:27:00,72.8,68.0,29.80,ESE,121,5.0,-999.0,86,-99.99,,,0.73,weatherlink.com 1.10,2013-07-22 15:27:00,
2013-07-22 11:42:00,73.2,68.0,29.80,ESE,105,1.0,-999.0,83,-99.99,,,0.73,weatherlink.com 1.10,2013-07-22 15:42:00,
2013-07-22 11:57:00,75.6,69.0,29.80,ESE,103,4.0,-999.0,79,-99.99,,,0.73,weatherlink.com 1.10,2013-07-22 15:57:00,
2013-07-22 12:12:00,76.0,69.0,29.80,ESE,113,5.0,-999.0,79,-99.99,,,0.73,weatherlink.com 1.10,2013-07-22 16:12:00,
2013-07-22 12:27:00,75.6,68.0,29.80,ESE,117,7.0,-999.0,76,-99.99,,,0.73,weatherlink.com 1.10,2013-07-22 16:27:00,
2013-07-22 12:42:00,75.9,67.0,29.80,ESE,105,0.0,-999.0,75,-99.99,,,0.73,weatherlink.com 1.10,2013-07-22 16:42:00,
2013-07-22 12:57:00,77.4,68.0,29.80,ESE,103,6.0,-999.0,73,-99.99,,,0.73,weatherlink.com 1.10,2013-07-22 16:57:00,
2013-07-22 13:12:00,79.1,69.0,29.79,ESE,112,0.0,-999.0,70,-99.99,,,0.73,weatherlink.com 1.10,2013-07-22 17:12:00,
2013-07-22 13:27:00,79.2,69.0,29.79,ESE,121,0.0,-999.0,70,-99.99,,,0.73,weatherlink.com 1.10,2013-07-22 17:27:00,
2013-07-22 13:42:00,80.9,70.0,29.78,ESE,122,8.0,-999.0,70,-99.99,,,0.73,weatherlink.com 1.10,2013-07-22 17:42:00,
2013-07-22 13:57:00,80.7,69.0,29.78,SSW,196,0.0,-999.0,67,-99.99,,,0.73,weatherlink.com 1.10,2013-07-22 17:57:00,
2013-07-22 14:13:00,80.6,68.0,29.78,ESE,123,0.0,-999.0,65,-99.99,,,0.73,weatherlink.com 1.10,2013-07-22 18:13:00,
2013-07-22 14:28:00,82.2,71.0,29.77,South,169,0.0,-999.0,68,-99.99,,,0.73,weatherlink.com 1.10,2013-07-22 18:28:00,
2013-07-22 14:43:00,81.3,68.0,29.77,SSE,158,0.0,-999.0,65,-99.99,,,0.73,weatherlink.com 1.10,2013-07-22 18:43:00,
2013-07-22 15:13:00,80.1,67.0,29.76,ESE,110,0.0,-999.0,64,-99.99,,,0.73,weatherlink.com 1.10,2013-07-22 19:13:00,
2013-07-22 15:28:00,81.9,68.0,29.77,SSE,155,0.0,-999.0,63,-99.99,,,0.73,weatherlink.com 1.10,2013-07-22 19:28:00,
2013-07-22 15:43:00,81.2,70.0,29.76,South,182,3.0,-999.0,68,-99.99,,,0.73,weatherlink.com 1.10,2013-07-22 19:43:00,
2013-07-22 15:58:00,81.2,68.0,29.76,South,186,0.0,-999.0,64,-99.99,,,0.73,weatherlink.com 1.10,2013-07-22 19:58:00,
2013-07-22 16:28:00,81.5,67.0,29.75,SSW,192,0.0,-999.0,61,-99.99,,,0.73,weatherlink.com 1.10,2013-07-22 20:28:00,
2013-07-22 16:43:00,81.9,67.0,29.74,ESE,105,0.0,-999.0,61,-99.99,,,0.73,weatherlink.com 1.10,2013-07-22 20:43:00,
2013-07-22 16:58:00,82.5,68.0,29.74,ESE,114,6.0,-999.0,61,-99.99,,,0.73,weatherlink.com 1.10,2013-07-22 20:58:00,
2013-07-22 17:14:00,81.3,67.0,29.73,East,86,0.0,-999.0,63,-99.99,,,0.73,weatherlink.com 1.10,2013-07-22 21:14:00,
2013-07-22 17:29:00,82.8,66.0,29.73,East,86,0.0,-999.0,58,-99.99,,,0.73,weatherlink.com 1.10,2013-07-22 21:29:00,
2013-07-22 17:44:00,83.8,68.0,29.73,East,86,0.0,-999.0,59,-99.99,,,0.73,weatherlink.com 1.10,2013-07-22 21:44:00,
2013-07-22 17:59:00,84.7,67.0,29.73,ESE,105,0.0,-999.0,56,-99.99,,,0.73,weatherlink.com 1.10,2013-07-22 21:59:00,
2013-07-22 18:14:00,83.1,68.0,29.73,ESE,109,0.0,-999.0,61,-99.99,,,0.73,weatherlink.com 1.10,2013-07-22 22:14:00,
2013-07-22 18:29:00,83.4,67.0,29.72,ESE,107,0.0,-999.0,58,-99.99,,,0.73,weatherlink.com 1.10,2013-07-22 22:29:00,
2013-07-22 18:44:00,82.2,68.0,29.72,ESE,107,0.0,-999.0,62,-99.99,,,0.73,weatherlink.com 1.10,2013-07-22 22:44:00,
2013-07-22 18:59:00,82.5,68.0,29.72,ESE,121,5.0,-999.0,62,-99.99,,,0.73,weatherlink.com 1.10,2013-07-22 22:59:00,
2013-07-22 19:14:00,82.7,68.0,29.72,ESE,121,0.0,-999.0,61,-99.99,,,0.73,weatherlink.com 1.10,2013-07-22 23:14:00,
2013-07-22 19:29:00,82.8,68.0,29.71,SE,133,2.0,-999.0,61,-99.99,,,0.73,weatherlink.com 1.10,2013-07-22 23:29:00,
2013-07-22 19:45:00,82.3,68.0,29.71,SE,134,0.0,-999.0,62,-99.99,,,0.73,weatherlink.com 1.10,2013-07-22 23:45:00,
2013-07-22 20:00:00,81.2,68.0,29.71,SE,134,0.0,-999.0,64,-99.99,,,0.73,weatherlink.com 1.10,2013-07-23 00:00:00,
2013-07-22 20:30:00,79.3,68.0,29.71,SE,134,0.0,-999.0,69,-99.99,,,0.73,weatherlink.com 1.10,2013-07-23 00:30:00,
2013-07-22 20:45:00,78.4,68.0,29.72,SE,134,0.0,-999.0,70,-99.99,,,0.73,weatherlink.com 1.10,2013-07-23 00:45:00,
2013-07-22 21:00:00,77.5,68.0,29.72,SE,134,0.0,-999.0,73,-99.99,,,0.73,weatherlink.com 1.10,2013-07-23 01:00:00,
2013-07-22 21:15:00,76.7,68.0,29.72,SSE,151,0.0,-999.0,75,-99.99,,,0.73,weatherlink.com 1.10,2013-07-23 01:15:00,
2013-07-22 21:30:00,76.2,69.0,29.72,SSE,152,0.0,-999.0,77,-99.99,,,0.73,weatherlink.com 1.10,2013-07-23 01:30:00,
2013-07-22 21:45:00,75.5,68.0,29.73,SSE,151,0.0,-999.0,78,-99.99,,,0.73,weatherlink.com 1.10,2013-07-23 01:45:00,
2013-07-22 22:00:00,74.6,68.0,29.73,SSE,151,0.0,-999.0,80,-99.99,,,0.73,weatherlink.com 1.10,2013-07-23 02:00:00,
2013-07-22 22:15:00,74.3,68.0,29.73,SSE,152,0.0,-999.0,81,-99.99,,,0.73,weatherlink.com 1.10,2013-07-23 02:15:00,
2013-07-22 22:30:00,73.7,68.0,29.73,SSE,151,0.0,-999.0,82,-99.99,,,0.73,weatherlink.com 1.10,2013-07-23 02:30:00,
2013-07-22 22:45:00,73.1,68.0,29.73,SSE,152,0.0,-999.0,83,-99.99,,,0.73,weatherlink.com 1.10,2013-07-23 02:45:00,
2013-07-22 23:00:00,72.7,68.0,29.74,SSE,151,0.0,-999.0,84,-99.99,,,0.73,weatherlink.com 1.10,2013-07-23 03:00:00,
2013-07-22 23:16:00,72.4,68.0,29.73,SSE,151,0.0,-999.0,85,-99.99,,,0.73,weatherlink.com 1.10,2013-07-23 03:16:00,
2013-07-22 23:31:00,72.1,68.0,29.74,SSE,152,0.0,-999.0,86,-99.99,,,0.73,weatherlink.com 1.10,2013-07-23 03:31:00,
2013-07-22 23:46:00,71.7,67.0,29.74,SSE,151,0.0,-999.0,86,-99.99,,,0.73,weatherlink.com 1.10,2013-07-23 03:46:00,